KSEA/SEA METAR and TAF weather

Enter ICAO airport designator
Station Type Date Time Source
KSEA METAR 2021/02/27 21:53 UTC NOAA

KSEA 272153Z 18005KT 10SM FEW032 SCT050 BKN220 08/M01 A3027 RMK AO2 SLP260 T00831006


Station Type Date Time Source
KSEA Decoded METAR 2021/02/27 21:53 UTC NOAA

SEATTLE-TACOMA INTERNATIONAL AIRPORT , WA, United States (KSEA) 47-27N 122-19W 136M
Feb 27, 2021 - 04:53 PM EST / 2021.02.27 2153 UTC
Wind: from the S (180 degrees) at 6 MPH (5 KT):0
Visibility: 10 mile(s):0
Sky conditions: mostly cloudy
Temperature: 46.9 F (8.3 C)
Dew Point: 30.9 F (-0.6 C)
Relative Humidity: 53%
Pressure (altimeter): 30.27 in. Hg (1025 hPa)
ob: KSEA 272153Z 18005KT 10SM FEW032 SCT050 BKN220 08/M01 A3027 RMK AO2 SLP260 T00831006
cycle: 22

Station Type Date Time Source
KSEA TAF 2021/02/27 21:06 UTC NOAA

TAF
AMD KSEA 272104Z 2721/2824 18006KT P6SM BKN050 BKN120 BKN200
FM280400 18006KT P6SM SCT035 OVC060
FM280900 18006KT P6SM -SHRA OVC020
FM282200 20009KT P6SM BKN030 BKN050

Example: see airport list